sensor_id;sensor_type;location;lat;lon;timestamp;P1;durP1;ratioP1;P2;durP2;ratioP2
56255;SDS011;57229;51.432;-2.598;2023-11-18T00:02:10;4.82;;;1.77;;
56255;SDS011;57229;51.432;-2.598;2023-11-18T00:04:36;3.13;;;1.40;;
56255;SDS011;57229;51.432;-2.598;2023-11-18T00:07:02;3.65;;;1.45;;
56255;SDS011;57229;51.432;-2.598;2023-11-18T00:09:29;2.30;;;1.50;;
56255;SDS011;57229;51.432;-2.598;2023-11-18T00:11:57;1.85;;;1.15;;
56255;SDS011;57229;51.432;-2.598;2023-11-18T00:14:23;3.20;;;1.60;;
56255;SDS011;57229;51.432;-2.598;2023-11-18T00:16:48;3.25;;;1.38;;
56255;SDS011;57229;51.432;-2.598;2023-11-18T00:19:14;2.95;;;1.25;;
56255;SDS011;57229;51.432;-2.598;2023-11-18T00:21:40;3.67;;;1.52;;
56255;SDS011;57229;51.432;-2.598;2023-11-18T00:24:09;4.28;;;1.13;;
56255;SDS011;57229;51.432;-2.598;2023-11-18T00:26:35;2.30;;;1.50;;
56255;SDS011;57229;51.432;-2.598;2023-11-18T00:29:01;2.45;;;1.00;;
56255;SDS011;57229;51.432;-2.598;2023-11-18T00:31:27;3.20;;;1.00;;
56255;SDS011;57229;51.432;-2.598;2023-11-18T00:33:53;3.13;;;1.00;;
56255;SDS011;57229;51.432;-2.598;2023-11-18T00:36:21;1.90;;;1.10;;
56255;SDS011;57229;51.432;-2.598;2023-11-18T00:38:59;1.20;;;0.90;;
56255;SDS011;57229;51.432;-2.598;2023-11-18T00:41:28;1.17;;;0.88;;
56255;SDS011;57229;51.432;-2.598;2023-11-18T00:44:03;1.90;;;1.10;;
56255;SDS011;57229;51.432;-2.598;2023-11-18T00:46:33;2.85;;;1.00;;
56255;SDS011;57229;51.432;-2.598;2023-11-18T00:49:01;3.67;;;1.05;;
56255;SDS011;57229;51.432;-2.598;2023-11-18T00:51:33;4.07;;;1.05;;
56255;SDS011;57229;51.432;-2.598;2023-11-18T00:53:58;2.08;;;1.00;;
56255;SDS011;57229;51.432;-2.598;2023-11-18T00:56:26;3.42;;;1.10;;
56255;SDS011;57229;51.432;-2.598;2023-11-18T00:58:53;3.10;;;0.90;;
56255;SDS011;57229;51.432;-2.598;2023-11-18T01:01:19;2.60;;;0.82;;
56255;SDS011;57229;51.432;-2.598;2023-11-18T01:03:45;3.63;;;0.70;;
56255;SDS011;57229;51.432;-2.598;2023-11-18T01:06:12;0.75;;;0.73;;
56255;SDS011;57229;51.432;-2.598;2023-11-18T01:08:38;2.72;;;0.90;;
56255;SDS011;57229;51.432;-2.598;2023-11-18T01:11:05;7.82;;;1.00;;
56255;SDS011;57229;51.432;-2.598;2023-11-18T01:13:31;1.02;;;0.65;;
56255;SDS011;57229;51.432;-2.598;2023-11-18T01:15:56;0.88;;;0.70;;
56255;SDS011;57229;51.432;-2.598;2023-11-18T01:18:31;2.85;;;0.90;;
56255;SDS011;57229;51.432;-2.598;2023-11-18T01:20:57;1.33;;;0.85;;
56255;SDS011;57229;51.432;-2.598;2023-11-18T01:23:25;2.35;;;0.80;;
56255;SDS011;57229;51.432;-2.598;2023-11-18T01:26:14;5.53;;;0.90;;
56255;SDS011;57229;51.432;-2.598;2023-11-18T01:28:43;0.80;;;0.77;;
56255;SDS011;57229;51.432;-2.598;2023-11-18T01:31:10;2.38;;;1.13;;
56255;SDS011;57229;51.432;-2.598;2023-11-18T01:33:37;3.05;;;0.80;;
56255;SDS011;57229;51.432;-2.598;2023-11-18T01:36:05;2.30;;;0.70;;
56255;SDS011;57229;51.432;-2.598;2023-11-18T01:38:33;3.25;;;0.68;;
56255;SDS011;57229;51.432;-2.598;2023-11-18T01:41:00;1.45;;;0.68;;
56255;SDS011;57229;51.432;-2.598;2023-11-18T01:43:26;2.63;;;0.50;;
56255;SDS011;57229;51.432;-2.598;2023-11-18T01:45:56;3.10;;;0.77;;
56255;SDS011;57229;51.432;-2.598;2023-11-18T01:48:59;1.83;;;0.50;;
56255;SDS011;57229;51.432;-2.598;2023-11-18T01:51:30;0.40;;;0.40;;
56255;SDS011;57229;51.432;-2.598;2023-11-18T01:54:02;1.30;;;0.60;;
56255;SDS011;57229;51.432;-2.598;2023-11-18T01:56:30;0.77;;;0.40;;
56255;SDS011;57229;51.432;-2.598;2023-11-18T01:58:57;2.65;;;0.43;;
56255;SDS011;57229;51.432;-2.598;2023-11-18T02:01:24;0.85;;;0.40;;
56255;SDS011;57229;51.432;-2.598;2023-11-18T02:03:52;1.52;;;0.43;;
56255;SDS011;57229;51.432;-2.598;2023-11-18T02:06:18;2.28;;;0.40;;
56255;SDS011;57229;51.432;-2.598;2023-11-18T02:08:46;1.15;;;0.63;;
56255;SDS011;57229;51.432;-2.598;2023-11-18T02:11:28;0.95;;;0.50;;
56255;SDS011;57229;51.432;-2.598;2023-11-18T02:14:03;2.83;;;0.50;;
56255;SDS011;57229;51.432;-2.598;2023-11-18T02:16:35;0.68;;;0.30;;
56255;SDS011;57229;51.432;-2.598;2023-11-18T02:19:08;0.65;;;0.50;;
56255;SDS011;57229;51.432;-2.598;2023-11-18T02:21:55;0.80;;;0.75;;
56255;SDS011;57229;51.432;-2.598;2023-11-18T02:24:25;0.65;;;0.38;;
56255;SDS011;57229;51.432;-2.598;2023-11-18T02:27:01;0.65;;;0.22;;
56255;SDS011;57229;51.432;-2.598;2023-11-18T02:29:37;1.85;;;0.43;;
56255;SDS011;57229;51.432;-2.598;2023-11-18T02:32:29;0.35;;;0.30;;
56255;SDS011;57229;51.432;-2.598;2023-11-18T02:35:12;0.35;;;0.28;;
56255;SDS011;57229;51.432;-2.598;2023-11-18T02:38:22;0.25;;;0.25;;
56255;SDS011;57229;51.432;-2.598;2023-11-18T02:40:54;0.20;;;0.20;;
56255;SDS011;57229;51.432;-2.598;2023-11-18T02:43:34;0.52;;;0.30;;
56255;SDS011;57229;51.432;-2.598;2023-11-18T02:46:23;0.35;;;0.30;;
56255;SDS011;57229;51.432;-2.598;2023-11-18T02:48:52;0.52;;;0.30;;
56255;SDS011;57229;51.432;-2.598;2023-11-18T02:51:19;0.35;;;0.30;;
56255;SDS011;57229;51.432;-2.598;2023-11-18T02:53:48;0.45;;;0.22;;
56255;SDS011;57229;51.432;-2.598;2023-11-18T02:56:23;0.20;;;0.20;;
56255;SDS011;57229;51.432;-2.598;2023-11-18T02:58:49;0.88;;;0.30;;
56255;SDS011;57229;51.432;-2.598;2023-11-18T03:01:14;0.25;;;0.22;;
56255;SDS011;57229;51.432;-2.598;2023-11-18T03:03:40;0.55;;;0.32;;
56255;SDS011;57229;51.432;-2.598;2023-11-18T03:06:07;1.33;;;0.47;;
56255;SDS011;57229;51.432;-2.598;2023-11-18T03:08:33;3.30;;;0.30;;
56255;SDS011;57229;51.432;-2.598;2023-11-18T03:10:59;0.82;;;0.40;;
56255;SDS011;57229;51.432;-2.598;2023-11-18T03:13:25;1.10;;;0.50;;
56255;SDS011;57229;51.432;-2.598;2023-11-18T03:15:52;0.38;;;0.30;;
56255;SDS011;57229;51.432;-2.598;2023-11-18T03:18:18;0.77;;;0.30;;
56255;SDS011;57229;51.432;-2.598;2023-11-18T03:20:48;0.30;;;0.30;;
56255;SDS011;57229;51.432;-2.598;2023-11-18T03:23:23;0.30;;;0.30;;
56255;SDS011;57229;51.432;-2.598;2023-11-18T03:25:49;1.03;;;0.43;;
56255;SDS011;57229;51.432;-2.598;2023-11-18T03:28:16;0.30;;;0.30;;
56255;SDS011;57229;51.432;-2.598;2023-11-18T03:30:51;0.30;;;0.30;;
56255;SDS011;57229;51.432;-2.598;2023-11-18T03:33:22;0.50;;;0.45;;
56255;SDS011;57229;51.432;-2.598;2023-11-18T03:35:51;0.40;;;0.35;;
56255;SDS011;57229;51.432;-2.598;2023-11-18T03:38:17;0.60;;;0.40;;
56255;SDS011;57229;51.432;-2.598;2023-11-18T03:40:43;0.45;;;0.45;;
56255;SDS011;57229;51.432;-2.598;2023-11-18T03:43:21;1.17;;;0.40;;
56255;SDS011;57229;51.432;-2.598;2023-11-18T03:45:50;1.23;;;0.52;;
56255;SDS011;57229;51.432;-2.598;2023-11-18T03:48:21;0.40;;;0.40;;
56255;SDS011;57229;51.432;-2.598;2023-11-18T03:50:48;2.08;;;0.65;;
56255;SDS011;57229;51.432;-2.598;2023-11-18T03:53:16;1.02;;;0.43;;
56255;SDS011;57229;51.432;-2.598;2023-11-18T03:55:42;2.50;;;0.75;;
56255;SDS011;57229;51.432;-2.598;2023-11-18T03:58:09;1.42;;;0.70;;
56255;SDS011;57229;51.432;-2.598;2023-11-18T04:00:40;1.63;;;0.60;;
56255;SDS011;57229;51.432;-2.598;2023-11-18T04:03:11;0.60;;;0.60;;
56255;SDS011;57229;51.432;-2.598;2023-11-18T04:05:40;1.50;;;0.50;;
56255;SDS011;57229;51.432;-2.598;2023-11-18T04:08:08;2.03;;;0.60;;
56255;SDS011;57229;51.432;-2.598;2023-11-18T04:13:27;2.70;;;0.77;;
56255;SDS011;57229;51.432;-2.598;2023-11-18T04:15:56;1.23;;;0.55;;
56255;SDS011;57229;51.432;-2.598;2023-11-18T04:18:32;0.88;;;0.60;;
56255;SDS011;57229;51.432;-2.598;2023-11-18T04:21:39;0.93;;;0.55;;
56255;SDS011;57229;51.432;-2.598;2023-11-18T04:24:12;1.55;;;0.70;;
56255;SDS011;57229;51.432;-2.598;2023-11-18T04:26:44;0.63;;;0.40;;
56255;SDS011;57229;51.432;-2.598;2023-11-18T04:29:11;1.65;;;0.60;;
56255;SDS011;57229;51.432;-2.598;2023-11-18T04:34:40;1.48;;;0.60;;
56255;SDS011;57229;51.432;-2.598;2023-11-18T04:37:07;1.05;;;0.50;;
56255;SDS011;57229;51.432;-2.598;2023-11-18T04:39:36;0.52;;;0.47;;
56255;SDS011;57229;51.432;-2.598;2023-11-18T04:42:05;1.40;;;0.70;;
56255;SDS011;57229;51.432;-2.598;2023-11-18T04:44:32;1.25;;;0.68;;
56255;SDS011;57229;51.432;-2.598;2023-11-18T04:46:58;2.35;;;0.77;;
56255;SDS011;57229;51.432;-2.598;2023-11-18T04:49:27;2.17;;;0.85;;
56255;SDS011;57229;51.432;-2.598;2023-11-18T04:51:53;3.67;;;1.00;;
56255;SDS011;57229;51.432;-2.598;2023-11-18T04:54:19;1.85;;;0.95;;
56255;SDS011;57229;51.432;-2.598;2023-11-18T04:57:08;2.47;;;1.00;;
56255;SDS011;57229;51.432;-2.598;2023-11-18T04:59:45;3.45;;;1.20;;
56255;SDS011;57229;51.432;-2.598;2023-11-18T05:02:15;1.70;;;0.98;;
56255;SDS011;57229;51.432;-2.598;2023-11-18T05:04:41;4.88;;;1.10;;
56255;SDS011;57229;51.432;-2.598;2023-11-18T05:07:32;2.33;;;0.98;;
56255;SDS011;57229;51.432;-2.598;2023-11-18T05:09:58;2.15;;;1.00;;
56255;SDS011;57229;51.432;-2.598;2023-11-18T05:12:24;2.20;;;0.98;;
56255;SDS011;57229;51.432;-2.598;2023-11-18T05:14:53;2.45;;;0.95;;
56255;SDS011;57229;51.432;-2.598;2023-11-18T05:17:20;1.63;;;1.00;;
56255;SDS011;57229;51.432;-2.598;2023-11-18T05:19:49;3.03;;;1.38;;
56255;SDS011;57229;51.432;-2.598;2023-11-18T05:22:15;2.13;;;1.20;;
56255;SDS011;57229;51.432;-2.598;2023-11-18T05:24:41;3.05;;;1.40;;
56255;SDS011;57229;51.432;-2.598;2023-11-18T05:27:07;4.50;;;1.35;;
56255;SDS011;57229;51.432;-2.598;2023-11-18T05:29:48;6.68;;;1.50;;
56255;SDS011;57229;51.432;-2.598;2023-11-18T05:32:51;2.17;;;1.20;;
56255;SDS011;57229;51.432;-2.598;2023-11-18T05:35:17;1.58;;;1.10;;
56255;SDS011;57229;51.432;-2.598;2023-11-18T05:40:31;1.30;;;0.90;;
56255;SDS011;57229;51.432;-2.598;2023-11-18T05:42:57;1.33;;;0.85;;
56255;SDS011;57229;51.432;-2.598;2023-11-18T05:45:34;2.97;;;0.93;;
56255;SDS011;57229;51.432;-2.598;2023-11-18T05:48:28;2.58;;;1.00;;
56255;SDS011;57229;51.432;-2.598;2023-11-18T05:50:54;8.55;;;0.98;;
56255;SDS011;57229;51.432;-2.598;2023-11-18T05:53:20;4.72;;;1.23;;
56255;SDS011;57229;51.432;-2.598;2023-11-18T05:55:45;4.07;;;1.27;;
56255;SDS011;57229;51.432;-2.598;2023-11-18T05:58:11;2.65;;;1.10;;
56255;SDS011;57229;51.432;-2.598;2023-11-18T06:00:41;5.53;;;1.55;;
56255;SDS011;57229;51.432;-2.598;2023-11-18T06:03:07;2.05;;;1.00;;
56255;SDS011;57229;51.432;-2.598;2023-11-18T06:05:47;3.55;;;0.88;;
56255;SDS011;57229;51.432;-2.598;2023-11-18T06:08:17;3.97;;;0.98;;
56255;SDS011;57229;51.432;-2.598;2023-11-18T06:10:47;1.00;;;0.70;;
56255;SDS011;57229;51.432;-2.598;2023-11-18T06:13:47;1.98;;;0.90;;
56255;SDS011;57229;51.432;-2.598;2023-11-18T06:16:18;4.75;;;0.90;;
56255;SDS011;57229;51.432;-2.598;2023-11-18T06:18:48;2.25;;;0.60;;
56255;SDS011;57229;51.432;-2.598;2023-11-18T06:21:21;1.58;;;0.80;;
56255;SDS011;57229;51.432;-2.598;2023-11-18T06:23:56;3.65;;;0.65;;
56255;SDS011;57229;51.432;-2.598;2023-11-18T06:26:23;1.58;;;0.47;;
56255;SDS011;57229;51.432;-2.598;2023-11-18T06:28:51;1.98;;;0.57;;
56255;SDS011;57229;51.432;-2.598;2023-11-18T06:31:19;2.55;;;0.50;;
56255;SDS011;57229;51.432;-2.598;2023-11-18T06:33:46;1.02;;;0.50;;
56255;SDS011;57229;51.432;-2.598;2023-11-18T06:38:45;0.75;;;0.50;;
56255;SDS011;57229;51.432;-2.598;2023-11-18T06:41:14;2.72;;;0.80;;
56255;SDS011;57229;51.432;-2.598;2023-11-18T06:43:42;6.28;;;0.95;;
56255;SDS011;57229;51.432;-2.598;2023-11-18T06:46:41;1.30;;;0.65;;
56255;SDS011;57229;51.432;-2.598;2023-11-18T06:49:10;4.60;;;1.00;;
56255;SDS011;57229;51.432;-2.598;2023-11-18T06:51:44;2.90;;;1.08;;
56255;SDS011;57229;51.432;-2.598;2023-11-18T06:54:22;8.35;;;1.00;;
56255;SDS011;57229;51.432;-2.598;2023-11-18T06:56:49;2.75;;;1.13;;
56255;SDS011;57229;51.432;-2.598;2023-11-18T06:59:16;2.22;;;0.70;;
56255;SDS011;57229;51.432;-2.598;2023-11-18T07:01:43;1.48;;;1.00;;
56255;SDS011;57229;51.432;-2.598;2023-11-18T07:04:14;3.03;;;1.00;;
56255;SDS011;57229;51.432;-2.598;2023-11-18T07:06:40;0.70;;;0.70;;
56255;SDS011;57229;51.432;-2.598;2023-11-18T07:09:07;3.58;;;1.00;;
56255;SDS011;57229;51.432;-2.598;2023-11-18T07:11:43;4.10;;;1.05;;
56255;SDS011;57229;51.432;-2.598;2023-11-18T07:14:09;3.20;;;0.90;;
56255;SDS011;57229;51.432;-2.598;2023-11-18T07:16:37;4.82;;;1.00;;
56255;SDS011;57229;51.432;-2.598;2023-11-18T07:19:04;2.22;;;0.82;;
56255;SDS011;57229;51.432;-2.598;2023-11-18T07:21:30;1.15;;;0.70;;
56255;SDS011;57229;51.432;-2.598;2023-11-18T07:23:56;1.08;;;0.80;;
56255;SDS011;57229;51.432;-2.598;2023-11-18T07:26:24;1.55;;;0.68;;
56255;SDS011;57229;51.432;-2.598;2023-11-18T07:28:50;1.85;;;1.00;;
56255;SDS011;57229;51.432;-2.598;2023-11-18T07:31:16;3.65;;;0.70;;
56255;SDS011;57229;51.432;-2.598;2023-11-18T07:33:43;2.47;;;1.10;;
56255;SDS011;57229;51.432;-2.598;2023-11-18T07:36:13;2.72;;;1.00;;
56255;SDS011;57229;51.432;-2.598;2023-11-18T07:38:45;2.17;;;0.80;;
56255;SDS011;57229;51.432;-2.598;2023-11-18T07:41:10;2.42;;;0.80;;
56255;SDS011;57229;51.432;-2.598;2023-11-18T07:43:48;4.30;;;1.00;;
56255;SDS011;57229;51.432;-2.598;2023-11-18T07:46:21;1.95;;;1.02;;
56255;SDS011;57229;51.432;-2.598;2023-11-18T07:48:48;2.70;;;0.93;;
56255;SDS011;57229;51.432;-2.598;2023-11-18T07:51:17;3.58;;;0.90;;
56255;SDS011;57229;51.432;-2.598;2023-11-18T07:53:46;2.85;;;1.13;;
56255;SDS011;57229;51.432;-2.598;2023-11-18T07:56:15;1.98;;;1.00;;
56255;SDS011;57229;51.432;-2.598;2023-11-18T07:58:44;9.05;;;8.18;;
56255;SDS011;57229;51.432;-2.598;2023-11-18T08:01:13;8.13;;;7.72;;
56255;SDS011;57229;51.432;-2.598;2023-11-18T08:03:41;7.75;;;7.35;;
56255;SDS011;57229;51.432;-2.598;2023-11-18T08:06:07;8.30;;;7.80;;
56255;SDS011;57229;51.432;-2.598;2023-11-18T08:08:36;7.60;;;7.10;;
56255;SDS011;57229;51.432;-2.598;2023-11-18T08:11:05;8.15;;;7.60;;
56255;SDS011;57229;51.432;-2.598;2023-11-18T08:13:31;8.40;;;7.78;;
56255;SDS011;57229;51.432;-2.598;2023-11-18T08:15:56;8.50;;;7.80;;
56255;SDS011;57229;51.432;-2.598;2023-11-18T08:18:23;7.35;;;6.95;;
56255;SDS011;57229;51.432;-2.598;2023-11-18T08:20:49;7.85;;;7.35;;
56255;SDS011;57229;51.432;-2.598;2023-11-18T08:23:15;8.27;;;7.78;;
56255;SDS011;57229;51.432;-2.598;2023-11-18T08:25:41;8.00;;;7.40;;
56255;SDS011;57229;51.432;-2.598;2023-11-18T08:28:07;7.53;;;7.13;;
56255;SDS011;57229;51.432;-2.598;2023-11-18T08:30:42;8.05;;;7.30;;
56255;SDS011;57229;51.432;-2.598;2023-11-18T08:33:08;7.68;;;7.07;;
56255;SDS011;57229;51.432;-2.598;2023-11-18T08:35:37;7.20;;;6.80;;
56255;SDS011;57229;51.432;-2.598;2023-11-18T08:38:03;7.38;;;6.97;;
56255;SDS011;57229;51.432;-2.598;2023-11-18T08:40:29;7.35;;;6.90;;
56255;SDS011;57229;51.432;-2.598;2023-11-18T08:42:55;6.88;;;6.47;;
56255;SDS011;57229;51.432;-2.598;2023-11-18T08:47:57;7.40;;;6.90;;
56255;SDS011;57229;51.432;-2.598;2023-11-18T08:50:36;7.00;;;6.60;;
56255;SDS011;57229;51.432;-2.598;2023-11-18T08:53:04;7.30;;;6.90;;
56255;SDS011;57229;51.432;-2.598;2023-11-18T08:55:31;7.28;;;6.78;;
56255;SDS011;57229;51.432;-2.598;2023-11-18T08:58:04;7.25;;;6.57;;
56255;SDS011;57229;51.432;-2.598;2023-11-18T09:00:53;7.30;;;6.80;;
56255;SDS011;57229;51.432;-2.598;2023-11-18T09:03:37;7.03;;;6.67;;
56255;SDS011;57229;51.432;-2.598;2023-11-18T09:06:08;6.90;;;6.50;;
56255;SDS011;57229;51.432;-2.598;2023-11-18T09:08:42;7.25;;;6.78;;
56255;SDS011;57229;51.432;-2.598;2023-11-18T09:11:10;7.03;;;6.50;;
56255;SDS011;57229;51.432;-2.598;2023-11-18T09:13:39;6.60;;;6.30;;
56255;SDS011;57229;51.432;-2.598;2023-11-18T09:16:08;6.93;;;6.53;;
56255;SDS011;57229;51.432;-2.598;2023-11-18T09:18:34;6.20;;;5.90;;
56255;SDS011;57229;51.432;-2.598;2023-11-18T09:21:05;6.85;;;6.40;;
56255;SDS011;57229;51.432;-2.598;2023-11-18T09:23:32;6.30;;;6.00;;
56255;SDS011;57229;51.432;-2.598;2023-11-18T09:25:59;6.45;;;6.05;;
56255;SDS011;57229;51.432;-2.598;2023-11-18T09:28:26;6.80;;;6.50;;
56255;SDS011;57229;51.432;-2.598;2023-11-18T09:30:55;6.90;;;6.50;;
56255;SDS011;57229;51.432;-2.598;2023-11-18T09:33:28;6.28;;;5.97;;
56255;SDS011;57229;51.432;-2.598;2023-11-18T09:36:01;6.43;;;6.13;;
56255;SDS011;57229;51.432;-2.598;2023-11-18T09:40:54;6.10;;;5.80;;
56255;SDS011;57229;51.432;-2.598;2023-11-18T09:43:20;6.53;;;6.03;;
56255;SDS011;57229;51.432;-2.598;2023-11-18T09:45:53;6.10;;;5.70;;
56255;SDS011;57229;51.432;-2.598;2023-11-18T09:48:20;6.00;;;5.65;;
56255;SDS011;57229;51.432;-2.598;2023-11-18T09:50:50;6.40;;;6.00;;
56255;SDS011;57229;51.432;-2.598;2023-11-18T09:53:17;6.30;;;6.00;;
56255;SDS011;57229;51.432;-2.598;2023-11-18T09:55:55;6.22;;;5.85;;
56255;SDS011;57229;51.432;-2.598;2023-11-18T10:01:18;6.22;;;5.72;;
56255;SDS011;57229;51.432;-2.598;2023-11-18T10:03:46;6.35;;;6.03;;
56255;SDS011;57229;51.432;-2.598;2023-11-18T10:06:13;6.40;;;6.00;;
56255;SDS011;57229;51.432;-2.598;2023-11-18T10:08:40;7.28;;;6.53;;
56255;SDS011;57229;51.432;-2.598;2023-11-18T10:11:11;6.55;;;6.05;;
56255;SDS011;57229;51.432;-2.598;2023-11-18T10:13:38;6.38;;;5.88;;
56255;SDS011;57229;51.432;-2.598;2023-11-18T10:16:06;6.57;;;6.07;;
56255;SDS011;57229;51.432;-2.598;2023-11-18T10:18:33;7.03;;;6.30;;
56255;SDS011;57229;51.432;-2.598;2023-11-18T10:21:02;7.13;;;6.28;;
56255;SDS011;57229;51.432;-2.598;2023-11-18T10:23:33;6.78;;;6.20;;
56255;SDS011;57229;51.432;-2.598;2023-11-18T10:25:59;6.57;;;6.10;;
56255;SDS011;57229;51.432;-2.598;2023-11-18T10:33:31;9.40;;;5.97;;
56255;SDS011;57229;51.432;-2.598;2023-11-18T10:36:19;6.13;;;5.57;;
56255;SDS011;57229;51.432;-2.598;2023-11-18T10:38:48;6.97;;;6.38;;
56255;SDS011;57229;51.432;-2.598;2023-11-18T10:41:17;7.80;;;6.03;;
56255;SDS011;57229;51.432;-2.598;2023-11-18T10:43:43;6.53;;;6.05;;
56255;SDS011;57229;51.432;-2.598;2023-11-18T10:46:10;6.22;;;5.80;;
56255;SDS011;57229;51.432;-2.598;2023-11-18T10:48:39;9.00;;;6.60;;
56255;SDS011;57229;51.432;-2.598;2023-11-18T10:51:13;6.97;;;6.43;;
56255;SDS011;57229;51.432;-2.598;2023-11-18T10:53:41;7.13;;;6.32;;
56255;SDS011;57229;51.432;-2.598;2023-11-18T10:56:26;8.02;;;6.82;;
56255;SDS011;57229;51.432;-2.598;2023-11-18T10:58:55;7.63;;;6.70;;
56255;SDS011;57229;51.432;-2.598;2023-11-18T11:01:34;7.63;;;6.40;;
56255;SDS011;57229;51.432;-2.598;2023-11-18T11:04:07;7.78;;;6.78;;
56255;SDS011;57229;51.432;-2.598;2023-11-18T11:06:35;6.85;;;6.28;;
56255;SDS011;57229;51.432;-2.598;2023-11-18T11:09:06;8.20;;;6.57;;
56255;SDS011;57229;51.432;-2.598;2023-11-18T11:11:40;10.52;;;6.72;;
56255;SDS011;57229;51.432;-2.598;2023-11-18T11:14:17;8.00;;;6.25;;
56255;SDS011;57229;51.432;-2.598;2023-11-18T11:16:47;8.43;;;6.32;;
56255;SDS011;57229;51.432;-2.598;2023-11-18T11:27:46;10.50;;;6.50;;
56255;SDS011;57229;51.432;-2.598;2023-11-18T11:30:33;11.90;;;6.88;;
56255;SDS011;57229;51.432;-2.598;2023-11-18T11:36:09;8.02;;;7.18;;
56255;SDS011;57229;51.432;-2.598;2023-11-18T11:38:41;12.15;;;6.88;;
56255;SDS011;57229;51.432;-2.598;2023-11-18T11:41:11;9.90;;;6.78;;
56255;SDS011;57229;51.432;-2.598;2023-11-18T11:43:44;8.95;;;6.70;;
56255;SDS011;57229;51.432;-2.598;2023-11-18T11:46:13;11.57;;;7.05;;
56255;SDS011;57229;51.432;-2.598;2023-11-18T11:48:43;14.23;;;8.35;;
56255;SDS011;57229;51.432;-2.598;2023-11-18T11:51:11;18.08;;;8.13;;
56255;SDS011;57229;51.432;-2.598;2023-11-18T11:54:29;15.30;;;7.25;;
56255;SDS011;57229;51.432;-2.598;2023-11-18T11:56:42;12.07;;;7.68;;
56255;SDS011;57229;51.432;-2.598;2023-11-18T11:59:08;16.35;;;6.97;;
56255;SDS011;57229;51.432;-2.598;2023-11-18T12:01:36;8.73;;;6.82;;
56255;SDS011;57229;51.432;-2.598;2023-11-18T12:04:03;13.23;;;6.30;;
56255;SDS011;57229;51.432;-2.598;2023-11-18T12:06:36;12.05;;;6.30;;
56255;SDS011;57229;51.432;-2.598;2023-11-18T12:09:08;15.30;;;6.28;;
56255;SDS011;57229;51.432;-2.598;2023-11-18T12:11:34;14.65;;;7.25;;
56255;SDS011;57229;51.432;-2.598;2023-11-18T12:14:07;13.25;;;6.60;;
56255;SDS011;57229;51.432;-2.598;2023-11-18T12:17:07;15.15;;;6.60;;
56255;SDS011;57229;51.432;-2.598;2023-11-18T12:19:40;17.25;;;7.07;;
56255;SDS011;57229;51.432;-2.598;2023-11-18T12:22:21;18.50;;;7.22;;
56255;SDS011;57229;51.432;-2.598;2023-11-18T12:27:45;11.00;;;6.63;;
56255;SDS011;57229;51.432;-2.598;2023-11-18T12:35:48;15.43;;;7.18;;
56255;SDS011;57229;51.432;-2.598;2023-11-18T12:41:34;11.02;;;6.50;;
56255;SDS011;57229;51.432;-2.598;2023-11-18T12:44:14;15.80;;;6.40;;
56255;SDS011;57229;51.432;-2.598;2023-11-18T12:49:44;16.08;;;6.70;;
56255;SDS011;57229;51.432;-2.598;2023-11-18T12:52:15;15.60;;;7.38;;
56255;SDS011;57229;51.432;-2.598;2023-11-18T12:54:44;23.88;;;6.97;;
56255;SDS011;57229;51.432;-2.598;2023-11-18T12:57:15;17.23;;;6.50;;
56255;SDS011;57229;51.432;-2.598;2023-11-18T12:59:42;18.42;;;6.97;;
56255;SDS011;57229;51.432;-2.598;2023-11-18T13:02:09;16.08;;;6.88;;
56255;SDS011;57229;51.432;-2.598;2023-11-18T13:04:41;19.50;;;6.55;;
56255;SDS011;57229;51.432;-2.598;2023-11-18T13:07:06;15.25;;;6.15;;
56255;SDS011;57229;51.432;-2.598;2023-11-18T13:09:36;14.35;;;6.28;;
56255;SDS011;57229;51.432;-2.598;2023-11-18T13:12:04;15.45;;;6.70;;
56255;SDS011;57229;51.432;-2.598;2023-11-18T13:14:33;15.27;;;6.80;;
56255;SDS011;57229;51.432;-2.598;2023-11-18T13:17:04;19.35;;;6.57;;
56255;SDS011;57229;51.432;-2.598;2023-11-18T13:19:34;20.77;;;6.47;;
56255;SDS011;57229;51.432;-2.598;2023-11-18T13:22:00;22.70;;;6.90;;
56255;SDS011;57229;51.432;-2.598;2023-11-18T13:24:29;16.65;;;6.95;;
56255;SDS011;57229;51.432;-2.598;2023-11-18T13:26:58;16.52;;;6.90;;
56255;SDS011;57229;51.432;-2.598;2023-11-18T13:29:32;11.98;;;7.15;;
56255;SDS011;57229;51.432;-2.598;2023-11-18T13:32:00;19.42;;;7.63;;
56255;SDS011;57229;51.432;-2.598;2023-11-18T13:34:29;20.90;;;6.95;;
56255;SDS011;57229;51.432;-2.598;2023-11-18T13:37:00;21.52;;;7.68;;
56255;SDS011;57229;51.432;-2.598;2023-11-18T13:39:26;20.40;;;7.28;;
56255;SDS011;57229;51.432;-2.598;2023-11-18T13:41:52;18.88;;;7.28;;
56255;SDS011;57229;51.432;-2.598;2023-11-18T13:44:37;14.35;;;6.68;;
56255;SDS011;57229;51.432;-2.598;2023-11-18T13:47:06;18.00;;;6.45;;
56255;SDS011;57229;51.432;-2.598;2023-11-18T13:49:34;21.15;;;6.65;;
56255;SDS011;57229;51.432;-2.598;2023-11-18T13:52:00;17.73;;;6.80;;
56255;SDS011;57229;51.432;-2.598;2023-11-18T13:54:27;17.98;;;6.38;;
56255;SDS011;57229;51.432;-2.598;2023-11-18T13:56:54;17.27;;;7.25;;
56255;SDS011;57229;51.432;-2.598;2023-11-18T13:59:26;15.82;;;6.78;;
56255;SDS011;57229;51.432;-2.598;2023-11-18T14:01:53;16.48;;;7.15;;
56255;SDS011;57229;51.432;-2.598;2023-11-18T14:04:22;26.35;;;6.95;;
56255;SDS011;57229;51.432;-2.598;2023-11-18T14:06:58;18.10;;;6.28;;
56255;SDS011;57229;51.432;-2.598;2023-11-18T14:09:25;19.60;;;7.30;;
56255;SDS011;57229;51.432;-2.598;2023-11-18T14:11:52;24.83;;;7.65;;
56255;SDS011;57229;51.432;-2.598;2023-11-18T14:14:21;23.95;;;9.50;;
56255;SDS011;57229;51.432;-2.598;2023-11-18T14:16:48;18.42;;;7.78;;
56255;SDS011;57229;51.432;-2.598;2023-11-18T14:19:14;21.80;;;6.93;;
56255;SDS011;57229;51.432;-2.598;2023-11-18T14:21:40;16.27;;;6.40;;
56255;SDS011;57229;51.432;-2.598;2023-11-18T14:24:07;18.17;;;6.53;;
56255;SDS011;57229;51.432;-2.598;2023-11-18T14:26:33;23.35;;;7.47;;
56255;SDS011;57229;51.432;-2.598;2023-11-18T14:28:59;22.83;;;6.93;;
56255;SDS011;57229;51.432;-2.598;2023-11-18T14:31:25;23.25;;;7.35;;
56255;SDS011;57229;51.432;-2.598;2023-11-18T14:33:51;21.50;;;7.03;;
56255;SDS011;57229;51.432;-2.598;2023-11-18T14:36:17;21.63;;;7.50;;
56255;SDS011;57229;51.432;-2.598;2023-11-18T14:38:44;17.40;;;7.25;;
56255;SDS011;57229;51.432;-2.598;2023-11-18T14:41:10;25.52;;;7.43;;
56255;SDS011;57229;51.432;-2.598;2023-11-18T14:43:36;23.08;;;7.47;;
56255;SDS011;57229;51.432;-2.598;2023-11-18T14:46:05;22.88;;;7.75;;
56255;SDS011;57229;51.432;-2.598;2023-11-18T14:48:32;16.70;;;7.07;;
56255;SDS011;57229;51.432;-2.598;2023-11-18T14:50:58;17.55;;;8.00;;
56255;SDS011;57229;51.432;-2.598;2023-11-18T14:53:23;18.27;;;7.38;;
56255;SDS011;57229;51.432;-2.598;2023-11-18T14:55:50;21.25;;;7.22;;
56255;SDS011;57229;51.432;-2.598;2023-11-18T14:58:15;23.25;;;8.27;;
56255;SDS011;57229;51.432;-2.598;2023-11-18T15:00:41;25.88;;;7.75;;
56255;SDS011;57229;51.432;-2.598;2023-11-18T15:03:08;25.48;;;7.57;;
56255;SDS011;57229;51.432;-2.598;2023-11-18T15:05:34;26.05;;;7.82;;
56255;SDS011;57229;51.432;-2.598;2023-11-18T15:07:59;22.55;;;7.38;;
56255;SDS011;57229;51.432;-2.598;2023-11-18T15:10:26;25.58;;;8.15;;
56255;SDS011;57229;51.432;-2.598;2023-11-18T15:12:56;23.52;;;7.97;;
56255;SDS011;57229;51.432;-2.598;2023-11-18T15:15:24;23.15;;;7.82;;
56255;SDS011;57229;51.432;-2.598;2023-11-18T15:17:59;23.27;;;7.63;;
56255;SDS011;57229;51.432;-2.598;2023-11-18T15:20:29;18.85;;;7.00;;
56255;SDS011;57229;51.432;-2.598;2023-11-18T15:22:55;17.33;;;7.40;;
56255;SDS011;57229;51.432;-2.598;2023-11-18T15:25:21;26.45;;;7.90;;
56255;SDS011;57229;51.432;-2.598;2023-11-18T15:27:50;25.13;;;7.68;;
56255;SDS011;57229;51.432;-2.598;2023-11-18T15:30:42;27.40;;;8.00;;
56255;SDS011;57229;51.432;-2.598;2023-11-18T15:33:11;26.10;;;7.70;;
56255;SDS011;57229;51.432;-2.598;2023-11-18T15:35:40;32.08;;;8.15;;
56255;SDS011;57229;51.432;-2.598;2023-11-18T15:38:09;16.67;;;7.00;;
56255;SDS011;57229;51.432;-2.598;2023-11-18T15:40:41;32.80;;;7.93;;